createdAt,value
2019-02-15T08:53:45.623Z,22.93
2019-02-15T08:56:14.497Z,23.07
2019-02-15T08:58:42.419Z,26.23
2019-02-15T09:01:10.185Z,25.33
2019-02-15T09:03:38.043Z,23.85
2019-02-15T09:06:05.833Z,23.65
2019-02-15T09:08:33.700Z,22.73
2019-02-15T09:11:02.494Z,27.00
2019-02-15T09:13:30.380Z,27.60
2019-02-15T09:15:58.276Z,30.07
2019-02-15T09:18:26.146Z,21.00
2019-02-15T09:20:54.100Z,25.00
2019-02-15T09:23:22.020Z,21.40
2019-02-15T09:25:50.075Z,20.40
2019-02-15T09:28:26.161Z,26.07
2019-02-15T09:30:54.631Z,23.40
2019-02-15T09:33:22.617Z,21.80
2019-02-15T09:35:50.918Z,24.10
2019-02-15T09:38:18.941Z,22.00
2019-02-15T09:40:47.027Z,21.50
2019-02-15T09:43:15.095Z,22.97
2019-02-15T09:45:43.078Z,22.73
2019-02-15T09:48:11.141Z,24.67
2019-02-15T09:50:38.998Z,19.10
2019-02-15T09:53:06.852Z,22.60
2019-02-15T09:55:34.657Z,22.32
2019-02-15T09:58:02.907Z,20.67
2019-02-15T10:00:30.782Z,24.43
2019-02-15T10:02:58.719Z,23.70
2019-02-15T10:05:26.590Z,21.97
2019-02-15T10:07:54.540Z,21.60
2019-02-15T10:10:22.530Z,19.80
2019-02-15T10:12:50.345Z,22.97
2019-02-15T10:15:18.154Z,18.57
2019-02-15T10:17:46.070Z,20.33
2019-02-15T10:20:13.958Z,19.33
2019-02-15T10:22:41.892Z,18.67
2019-02-15T10:25:12.733Z,19.90
2019-02-15T10:27:40.755Z,23.17
2019-02-15T10:30:08.982Z,18.07
2019-02-15T10:32:37.138Z,18.30
2019-02-15T10:35:06.307Z,18.73
2019-02-15T10:37:34.087Z,19.70
2019-02-15T10:40:02.038Z,19.73
2019-02-15T10:42:29.824Z,20.10
2019-02-15T10:44:57.623Z,19.57
2019-02-15T10:47:25.621Z,16.67
2019-02-15T10:49:53.470Z,18.30
2019-02-15T10:52:22.033Z,17.90
2019-02-15T10:54:49.963Z,16.47
2019-02-15T10:57:18.523Z,20.10
2019-02-15T10:59:46.469Z,18.97
2019-02-15T11:02:14.221Z,16.17
2019-02-15T11:04:42.072Z,14.50
2019-02-15T11:07:09.855Z,15.90
2019-02-15T11:09:37.689Z,14.43
2019-02-15T11:12:05.730Z,13.40
2019-02-15T11:14:33.546Z,15.67
2019-02-15T11:17:03.109Z,16.37
2019-02-15T11:19:31.082Z,13.30
2019-02-15T11:21:59.046Z,14.77
2019-02-15T11:24:26.974Z,14.87
2019-02-15T11:26:54.870Z,15.17
2019-02-15T11:29:22.757Z,14.50
2019-02-15T11:31:50.574Z,13.03
2019-02-15T11:34:18.494Z,16.13
2019-02-15T11:36:46.285Z,14.23
2019-02-15T11:39:15.009Z,14.70
2019-02-15T11:41:43.188Z,15.57
2019-02-15T11:44:11.109Z,12.47
2019-02-15T11:46:38.868Z,11.70
2019-02-15T11:49:06.903Z,12.83
2019-02-15T11:51:35.385Z,12.83
2019-02-15T11:54:03.473Z,14.67
2019-02-15T11:56:31.337Z,13.17
2019-02-15T11:58:59.187Z,13.70
2019-02-15T12:01:27.054Z,14.43
2019-02-15T12:03:54.995Z,14.67
2019-02-15T12:06:23.587Z,12.20
2019-02-15T12:08:51.548Z,15.73
2019-02-15T12:11:19.602Z,18.30
2019-02-15T12:13:47.446Z,12.23
2019-02-15T12:16:15.213Z,13.17
2019-02-15T12:18:43.043Z,12.97
2019-02-15T12:21:10.982Z,12.73
2019-02-15T12:23:38.929Z,13.27
2019-02-15T12:26:06.777Z,13.37
2019-02-15T12:28:34.559Z,12.00
2019-02-15T12:31:02.408Z,14.73
2019-02-15T12:33:30.271Z,14.10
2019-02-15T12:35:58.095Z,11.00
2019-02-15T12:38:26.000Z,10.37
2019-02-15T12:40:54.020Z,13.93
2019-02-15T12:43:21.893Z,10.97
2019-02-15T12:45:49.725Z,15.03
2019-02-15T12:48:17.523Z,12.93
2019-02-15T12:50:45.556Z,16.73
2019-02-15T12:53:13.423Z,13.87
2019-02-15T12:55:41.753Z,14.03
2019-02-15T12:58:09.502Z,13.97
2019-02-15T13:00:40.960Z,21.43
2019-02-15T13:03:08.963Z,27.90
2019-02-15T13:05:36.913Z,42.23
2019-02-15T13:08:04.899Z,16.60
2019-02-15T13:10:35.282Z,13.23
2019-02-15T13:13:03.205Z,14.27
2019-02-15T13:15:31.027Z,11.50
2019-02-15T13:17:59.127Z,12.87
2019-02-15T13:20:27.199Z,12.20
2019-02-15T13:22:54.974Z,13.00
2019-02-15T13:25:23.027Z,14.80
2019-02-15T13:27:50.924Z,12.67
2019-02-15T13:30:18.744Z,15.60
2019-02-15T13:32:46.552Z,12.80
2019-02-15T13:35:15.643Z,13.07
2019-02-15T13:37:43.410Z,13.47
2019-02-15T13:40:11.332Z,12.40
2019-02-15T13:42:39.218Z,12.97
2019-02-15T13:45:08.385Z,16.53
2019-02-15T13:47:36.256Z,13.63
2019-02-15T13:50:04.435Z,15.27
2019-02-15T13:52:32.328Z,14.10
2019-02-15T13:55:00.307Z,13.40
2019-02-15T13:57:28.244Z,17.07
2019-02-15T13:59:56.096Z,15.43
2019-02-15T14:02:24.076Z,14.57
2019-02-15T14:04:53.101Z,15.93
2019-02-15T14:07:20.875Z,17.53
2019-02-15T14:09:49.036Z,18.30
2019-02-15T14:12:17.005Z,24.13
2019-02-15T14:14:44.903Z,14.80
2019-02-15T14:17:12.833Z,14.30
2019-02-15T14:19:40.819Z,13.70
2019-02-15T14:22:08.980Z,16.13
2019-02-15T14:24:37.635Z,12.93
2019-02-15T14:27:05.565Z,16.57
2019-02-15T14:29:33.503Z,15.83
2019-02-15T14:32:01.476Z,13.70
2019-02-15T14:34:29.390Z,14.53
2019-02-15T14:36:57.208Z,17.87
2019-02-15T14:39:25.073Z,13.87
2019-02-15T14:41:52.914Z,13.67
2019-02-15T14:44:20.776Z,12.70
2019-02-15T14:46:48.691Z,15.33
2019-02-15T14:49:16.473Z,13.37
2019-02-15T14:51:44.336Z,12.53
2019-02-15T14:54:12.291Z,13.27
2019-02-15T14:56:40.239Z,16.27
2019-02-15T14:59:08.084Z,14.43
2019-02-15T15:01:36.036Z,14.80
2019-02-15T15:04:03.788Z,18.10
2019-02-15T15:06:31.613Z,13.80
2019-02-15T15:08:59.492Z,12.37
2019-02-15T15:11:28.061Z,14.73
2019-02-15T15:13:55.857Z,11.60
2019-02-15T15:16:23.670Z,14.40
2019-02-15T15:18:51.453Z,13.37
2019-02-15T15:21:19.371Z,14.83
2019-02-15T15:23:47.139Z,12.97
2019-02-15T15:26:15.062Z,16.10
2019-02-15T15:28:42.957Z,13.53
2019-02-15T15:31:11.239Z,15.83
2019-02-15T15:33:39.358Z,15.57
2019-02-15T15:36:12.730Z,19.73
2019-02-15T15:38:40.628Z,16.93
2019-02-15T15:41:08.686Z,19.40
2019-02-15T15:43:36.483Z,22.10
2019-02-15T15:46:04.409Z,20.20
2019-02-15T15:48:32.895Z,19.07
2019-02-15T15:51:00.738Z,23.50
2019-02-15T15:53:28.620Z,23.70
2019-02-15T15:55:56.432Z,20.17
2019-02-15T15:58:24.220Z,22.50
2019-02-15T16:00:52.216Z,18.97
2019-02-15T16:03:20.146Z,17.57
2019-02-15T16:05:47.939Z,22.67
2019-02-15T16:08:16.407Z,18.50
2019-02-15T16:10:44.965Z,18.80
2019-02-15T16:13:13.143Z,18.97
2019-02-15T16:15:41.015Z,18.70
2019-02-15T16:18:08.886Z,22.43
2019-02-15T16:20:36.757Z,22.33
2019-02-15T16:23:04.705Z,19.80
2019-02-15T16:25:32.680Z,15.53
2019-02-15T16:28:01.808Z,18.12
2019-02-15T16:30:30.436Z,15.60
2019-02-15T16:32:58.292Z,22.37
2019-02-15T16:35:26.092Z,23.33
2019-02-15T16:37:56.890Z,14.37
2019-02-15T16:40:25.642Z,16.17
2019-02-15T16:42:54.705Z,18.87
2019-02-15T16:45:23.795Z,16.13
2019-02-15T16:47:51.717Z,17.80
2019-02-15T16:50:19.640Z,17.17
2019-02-15T16:52:48.722Z,24.93
2019-02-15T16:55:16.495Z,22.47
2019-02-15T16:57:44.429Z,21.73
2019-02-15T17:00:12.664Z,15.00
2019-02-15T17:02:40.481Z,15.17
2019-02-15T17:05:08.561Z,20.13
2019-02-15T17:07:36.592Z,28.50
2019-02-15T17:10:04.993Z,34.27
2019-02-15T17:12:33.178Z,28.20
2019-02-15T17:15:00.945Z,20.27
2019-02-15T17:17:28.808Z,20.70
2019-02-15T17:19:57.219Z,19.47
2019-02-15T17:22:25.232Z,25.13
2019-02-15T17:24:53.109Z,26.77
2019-02-15T17:27:21.179Z,124.67
2019-02-15T17:29:49.766Z,33.10
2019-02-15T17:32:17.626Z,24.57
2019-02-15T17:34:45.549Z,31.97
2019-02-15T17:37:13.427Z,45.97
2019-02-15T17:39:41.333Z,40.00
2019-02-15T17:42:09.207Z,27.07
2019-02-15T17:44:37.110Z,29.50
2019-02-15T17:47:05.079Z,18.00
2019-02-15T17:49:32.848Z,24.23
2019-02-15T17:52:00.635Z,27.37
2019-02-15T17:54:28.471Z,25.43
2019-02-15T17:57:03.366Z,28.40
2019-02-15T17:59:34.778Z,23.13
2019-02-15T18:02:03.191Z,21.53
2019-02-15T18:04:31.140Z,20.17
2019-02-15T18:06:59.005Z,18.27
2019-02-15T18:09:26.905Z,23.87
2019-02-15T18:11:59.942Z,23.77
2019-02-15T18:14:28.366Z,54.87
2019-02-15T18:16:56.279Z,53.00
2019-02-15T18:19:24.102Z,34.43
2019-02-15T18:21:51.940Z,22.57
2019-02-15T18:24:19.905Z,44.33
2019-02-15T18:26:48.098Z,42.43
2019-02-15T18:29:16.466Z,30.30
2019-02-15T18:31:44.346Z,38.43
2019-02-15T18:34:12.172Z,34.07
2019-02-15T18:36:40.075Z,42.40
2019-02-15T18:39:08.896Z,245.97
2019-02-15T18:41:37.560Z,1082.27
2019-02-15T18:44:05.574Z,1127.20
2019-02-15T18:46:33.515Z,558.33
2019-02-15T18:49:01.628Z,295.10
2019-02-15T18:51:29.542Z,96.63
2019-02-15T18:53:57.499Z,49.93
2019-02-15T18:56:25.294Z,66.93
2019-02-15T18:58:53.266Z,56.70
2019-02-15T19:01:21.181Z,47.10
2019-02-15T19:03:49.168Z,45.50
2019-02-15T19:06:19.084Z,52.03
2019-02-15T19:08:46.938Z,42.87
2019-02-15T19:11:14.931Z,43.03
2019-02-15T19:13:43.124Z,46.43
2019-02-15T19:16:11.394Z,43.33
2019-02-15T19:18:39.996Z,80.67
2019-02-15T19:21:08.162Z,44.97
2019-02-15T19:23:36.799Z,44.03
2019-02-15T19:26:04.748Z,47.37
2019-02-15T19:28:32.786Z,48.77
2019-02-15T19:31:02.619Z,48.67
2019-02-15T19:33:30.586Z,57.93
2019-02-15T19:35:58.519Z,84.00
2019-02-15T19:38:26.526Z,66.70
2019-02-15T19:40:54.459Z,85.73
2019-02-15T19:43:22.387Z,85.53
2019-02-15T19:45:52.125Z,75.63
2019-02-15T19:48:20.050Z,61.33
2019-02-15T19:50:48.629Z,67.53
2019-02-15T19:53:16.603Z,69.77
2019-02-15T19:55:44.379Z,74.30
2019-02-15T19:58:12.256Z,72.63
2019-02-15T20:00:40.122Z,72.67
2019-02-15T20:03:07.937Z,70.03
2019-02-15T20:05:35.791Z,69.30
2019-02-15T20:08:04.214Z,59.27
2019-02-15T20:10:32.307Z,63.93
2019-02-15T20:13:00.985Z,66.10
2019-02-15T20:15:29.105Z,62.17
2019-02-15T20:17:57.331Z,61.17
2019-02-15T20:20:25.329Z,57.50
2019-02-15T20:22:53.123Z,65.47
2019-02-15T20:25:22.420Z,63.03
2019-02-15T20:27:51.254Z,56.13
2019-02-15T20:30:19.318Z,60.40
2019-02-15T20:32:47.328Z,54.13
2019-02-15T20:35:17.772Z,49.97
2019-02-15T20:37:45.797Z,55.43
2019-02-15T20:40:14.748Z,51.13
2019-02-15T20:42:42.587Z,52.10
2019-02-15T20:45:15.460Z,60.13
2019-02-15T20:47:43.340Z,52.80
2019-02-15T20:50:16.856Z,51.50
2019-02-15T20:52:44.801Z,51.77
2019-02-15T20:55:13.827Z,56.70
2019-02-15T20:57:41.852Z,46.60
2019-02-15T21:00:14.231Z,43.23
2019-02-15T21:02:42.422Z,43.30
2019-02-15T21:05:11.163Z,48.23
2019-02-15T21:07:39.055Z,47.33
2019-02-15T21:10:09.217Z,44.50
2019-02-15T21:12:39.450Z,48.10
2019-02-15T21:15:07.328Z,43.53
2019-02-15T21:17:35.250Z,45.83
2019-02-15T21:20:07.945Z,47.07
2019-02-15T21:22:33.503Z,50.17
2019-02-15T21:25:01.511Z,50.00
2019-02-15T21:27:29.319Z,56.90
2019-02-15T21:29:57.868Z,52.23
2019-02-15T21:32:25.785Z,51.80
2019-02-15T21:34:53.810Z,57.50
2019-02-15T21:37:21.830Z,47.30
2019-02-15T21:39:50.329Z,60.03
2019-02-15T21:42:18.251Z,46.00
2019-02-15T21:44:46.229Z,47.93
2019-02-15T21:47:14.005Z,49.17
2019-02-15T21:49:53.986Z,55.17
2019-02-15T21:52:21.996Z,51.37
2019-02-15T21:54:50.677Z,44.43
2019-02-15T21:57:18.701Z,55.37
2019-02-15T21:59:46.545Z,50.13
2019-02-15T22:02:14.531Z,61.07
2019-02-15T22:04:42.770Z,66.17
2019-02-15T22:07:10.548Z,70.63
2019-02-15T22:09:38.442Z,60.60
2019-02-15T22:12:06.398Z,60.33
2019-02-15T22:14:35.195Z,53.77
2019-02-15T22:17:03.774Z,54.27
2019-02-15T22:19:32.204Z,54.17
2019-02-15T22:22:00.174Z,61.30
2019-02-15T22:24:27.975Z,56.93
2019-02-15T22:26:56.059Z,58.67
2019-02-15T22:29:23.848Z,68.43
2019-02-15T22:31:53.129Z,61.67
2019-02-15T22:34:20.950Z,61.90
2019-02-15T22:36:48.833Z,69.13
2019-02-15T22:39:16.632Z,62.77
2019-02-15T22:41:44.505Z,60.93
2019-02-15T22:44:12.261Z,60.53
2019-02-15T22:46:40.873Z,63.33
2019-02-15T22:49:08.742Z,61.73
2019-02-15T22:51:39.484Z,63.70
2019-02-15T22:54:07.427Z,66.97
2019-02-15T22:56:35.384Z,78.73
2019-02-15T22:59:03.431Z,93.47
2019-02-15T23:01:32.365Z,131.50
2019-02-15T23:04:00.250Z,156.83
2019-02-15T23:06:28.479Z,138.73
2019-02-15T23:08:56.427Z,107.97
2019-02-15T23:11:24.553Z,95.77
2019-02-15T23:13:52.428Z,95.65
2019-02-15T23:16:20.344Z,111.97
2019-02-15T23:18:48.350Z,120.05
2019-02-15T23:21:16.213Z,98.70
2019-02-15T23:23:43.998Z,89.27
2019-02-15T23:26:11.914Z,78.67
2019-02-15T23:28:39.717Z,85.90
2019-02-15T23:31:07.595Z,82.50
2019-02-15T23:33:36.122Z,81.33
2019-02-15T23:36:04.001Z,78.78
2019-02-15T23:38:31.900Z,78.97
2019-02-15T23:40:59.786Z,78.25
2019-02-15T23:43:27.658Z,81.42
2019-02-15T23:45:55.581Z,83.75
2019-02-15T23:48:23.455Z,78.85
2019-02-15T23:50:54.841Z,75.17
2019-02-15T23:53:32.322Z,72.27
2019-02-15T23:56:00.172Z,77.25
2019-02-15T23:58:28.129Z,73.45
